sensor_id;sensor_type;location;lat;lon;timestamp;P1;durP1;ratioP1;P2;durP2;ratioP2
2023;SDS011;1016;48.770;9.154;2022-12-17T00:00:17;32.70;;;16.73;;
2023;SDS011;1016;48.770;9.154;2022-12-17T00:03:02;32.83;;;16.83;;
2023;SDS011;1016;48.770;9.154;2022-12-17T00:05:46;30.98;;;16.02;;
2023;SDS011;1016;48.770;9.154;2022-12-17T00:08:30;32.15;;;16.38;;
2023;SDS011;1016;48.770;9.154;2022-12-17T00:11:14;32.10;;;16.67;;
2023;SDS011;1016;48.770;9.154;2022-12-17T00:13:59;32.80;;;16.30;;
2023;SDS011;1016;48.770;9.154;2022-12-17T00:16:43;32.97;;;16.30;;
2023;SDS011;1016;48.770;9.154;2022-12-17T00:19:27;33.03;;;16.60;;
2023;SDS011;1016;48.770;9.154;2022-12-17T00:22:11;32.40;;;16.10;;
2023;SDS011;1016;48.770;9.154;2022-12-17T00:24:55;31.52;;;15.95;;
2023;SDS011;1016;48.770;9.154;2022-12-17T00:27:39;32.10;;;16.10;;
2023;SDS011;1016;48.770;9.154;2022-12-17T00:30:23;32.35;;;15.82;;
2023;SDS011;1016;48.770;9.154;2022-12-17T00:33:07;31.73;;;15.20;;
2023;SDS011;1016;48.770;9.154;2022-12-17T00:35:51;32.07;;;16.00;;
2023;SDS011;1016;48.770;9.154;2022-12-17T00:38:36;31.67;;;15.50;;
2023;SDS011;1016;48.770;9.154;2022-12-17T00:41:20;33.22;;;15.95;;
2023;SDS011;1016;48.770;9.154;2022-12-17T00:44:05;30.20;;;14.77;;
2023;SDS011;1016;48.770;9.154;2022-12-17T00:46:49;32.08;;;15.48;;
2023;SDS011;1016;48.770;9.154;2022-12-17T00:49:33;32.78;;;15.75;;
2023;SDS011;1016;48.770;9.154;2022-12-17T00:52:17;30.75;;;14.70;;
2023;SDS011;1016;48.770;9.154;2022-12-17T00:55:01;30.33;;;14.60;;
2023;SDS011;1016;48.770;9.154;2022-12-17T00:57:45;32.50;;;15.20;;
2023;SDS011;1016;48.770;9.154;2022-12-17T01:00:29;30.60;;;15.50;;
2023;SDS011;1016;48.770;9.154;2022-12-17T01:03:13;31.30;;;15.30;;
2023;SDS011;1016;48.770;9.154;2022-12-17T01:06:10;31.77;;;15.38;;
2023;SDS011;1016;48.770;9.154;2022-12-17T01:08:56;30.50;;;14.77;;
2023;SDS011;1016;48.770;9.154;2022-12-17T01:11:40;29.90;;;14.32;;
2023;SDS011;1016;48.770;9.154;2022-12-17T01:14:24;30.85;;;14.98;;
2023;SDS011;1016;48.770;9.154;2022-12-17T01:17:08;31.02;;;14.90;;
2023;SDS011;1016;48.770;9.154;2022-12-17T01:19:53;32.22;;;15.60;;
2023;SDS011;1016;48.770;9.154;2022-12-17T01:22:38;32.30;;;15.10;;
2023;SDS011;1016;48.770;9.154;2022-12-17T01:25:21;31.70;;;14.90;;
2023;SDS011;1016;48.770;9.154;2022-12-17T01:28:06;31.90;;;15.40;;
2023;SDS011;1016;48.770;9.154;2022-12-17T01:30:50;31.90;;;15.10;;
2023;SDS011;1016;48.770;9.154;2022-12-17T01:33:34;30.43;;;14.63;;
2023;SDS011;1016;48.770;9.154;2022-12-17T01:36:18;31.88;;;15.50;;
2023;SDS011;1016;48.770;9.154;2022-12-17T01:39:02;30.98;;;14.27;;
2023;SDS011;1016;48.770;9.154;2022-12-17T01:41:46;30.00;;;14.80;;
2023;SDS011;1016;48.770;9.154;2022-12-17T01:47:40;30.27;;;14.73;;
2023;SDS011;1016;48.770;9.154;2022-12-17T01:50:32;31.53;;;14.90;;
2023;SDS011;1016;48.770;9.154;2022-12-17T01:53:20;30.30;;;15.00;;
2023;SDS011;1016;48.770;9.154;2022-12-17T01:56:08;32.10;;;15.32;;
2023;SDS011;1016;48.770;9.154;2022-12-17T01:58:53;31.73;;;15.17;;
2023;SDS011;1016;48.770;9.154;2022-12-17T02:01:38;32.17;;;15.73;;
2023;SDS011;1016;48.770;9.154;2022-12-17T02:04:23;30.90;;;15.10;;
2023;SDS011;1016;48.770;9.154;2022-12-17T02:07:23;30.33;;;14.32;;
2023;SDS011;1016;48.770;9.154;2022-12-17T02:10:22;30.70;;;14.82;;
2023;SDS011;1016;48.770;9.154;2022-12-17T02:13:10;30.23;;;15.10;;
2023;SDS011;1016;48.770;9.154;2022-12-17T02:16:18;30.13;;;15.25;;
2023;SDS011;1016;48.770;9.154;2022-12-17T02:22:23;31.13;;;14.93;;
2023;SDS011;1016;48.770;9.154;2022-12-17T02:25:19;30.35;;;15.43;;
2023;SDS011;1016;48.770;9.154;2022-12-17T02:28:16;30.67;;;15.32;;
2023;SDS011;1016;48.770;9.154;2022-12-17T02:31:01;33.20;;;15.88;;
2023;SDS011;1016;48.770;9.154;2022-12-17T02:33:46;30.52;;;15.18;;
2023;SDS011;1016;48.770;9.154;2022-12-17T02:36:32;31.70;;;14.97;;
2023;SDS011;1016;48.770;9.154;2022-12-17T02:39:17;31.60;;;15.10;;
2023;SDS011;1016;48.770;9.154;2022-12-17T02:42:01;30.42;;;14.75;;
2023;SDS011;1016;48.770;9.154;2022-12-17T02:44:45;30.83;;;15.05;;
2023;SDS011;1016;48.770;9.154;2022-12-17T02:47:29;32.15;;;15.30;;
2023;SDS011;1016;48.770;9.154;2022-12-17T02:50:14;31.02;;;15.00;;
2023;SDS011;1016;48.770;9.154;2022-12-17T02:52:59;32.15;;;16.10;;
2023;SDS011;1016;48.770;9.154;2022-12-17T02:55:44;32.25;;;16.20;;
2023;SDS011;1016;48.770;9.154;2022-12-17T02:58:28;31.45;;;15.80;;
2023;SDS011;1016;48.770;9.154;2022-12-17T03:01:12;30.10;;;15.10;;
2023;SDS011;1016;48.770;9.154;2022-12-17T03:03:57;32.13;;;15.93;;
2023;SDS011;1016;48.770;9.154;2022-12-17T03:06:41;31.80;;;15.67;;
2023;SDS011;1016;48.770;9.154;2022-12-17T03:09:25;32.72;;;16.17;;
2023;SDS011;1016;48.770;9.154;2022-12-17T03:12:09;31.98;;;16.00;;
2023;SDS011;1016;48.770;9.154;2022-12-17T03:14:53;33.25;;;15.90;;
2023;SDS011;1016;48.770;9.154;2022-12-17T03:17:37;33.90;;;15.97;;
2023;SDS011;1016;48.770;9.154;2022-12-17T03:20:21;31.90;;;16.20;;
2023;SDS011;1016;48.770;9.154;2022-12-17T03:23:07;31.95;;;17.00;;
2023;SDS011;1016;48.770;9.154;2022-12-17T03:25:52;31.57;;;15.40;;
2023;SDS011;1016;48.770;9.154;2022-12-17T03:28:36;33.65;;;16.35;;
2023;SDS011;1016;48.770;9.154;2022-12-17T03:31:20;34.25;;;15.80;;
2023;SDS011;1016;48.770;9.154;2022-12-17T03:34:05;34.65;;;16.20;;
2023;SDS011;1016;48.770;9.154;2022-12-17T03:36:49;31.65;;;16.42;;
2023;SDS011;1016;48.770;9.154;2022-12-17T03:39:33;32.28;;;15.68;;
2023;SDS011;1016;48.770;9.154;2022-12-17T03:42:17;34.63;;;16.48;;
2023;SDS011;1016;48.770;9.154;2022-12-17T03:45:01;34.63;;;18.40;;
2023;SDS011;1016;48.770;9.154;2022-12-17T03:47:46;34.72;;;18.50;;
2023;SDS011;1016;48.770;9.154;2022-12-17T03:50:30;34.30;;;17.80;;
2023;SDS011;1016;48.770;9.154;2022-12-17T03:53:14;33.00;;;16.75;;
2023;SDS011;1016;48.770;9.154;2022-12-17T03:55:58;37.83;;;19.33;;
2023;SDS011;1016;48.770;9.154;2022-12-17T03:58:42;35.70;;;19.33;;
2023;SDS011;1016;48.770;9.154;2022-12-17T04:01:26;37.40;;;19.27;;
2023;SDS011;1016;48.770;9.154;2022-12-17T04:04:10;39.15;;;20.70;;
2023;SDS011;1016;48.770;9.154;2022-12-17T04:06:54;35.60;;;19.83;;
2023;SDS011;1016;48.770;9.154;2022-12-17T04:09:38;39.17;;;21.67;;
2023;SDS011;1016;48.770;9.154;2022-12-17T04:12:22;39.20;;;20.35;;
2023;SDS011;1016;48.770;9.154;2022-12-17T04:15:06;41.25;;;22.50;;
2023;SDS011;1016;48.770;9.154;2022-12-17T04:17:51;37.70;;;21.08;;
2023;SDS011;1016;48.770;9.154;2022-12-17T04:20:35;38.72;;;21.55;;
2023;SDS011;1016;48.770;9.154;2022-12-17T04:23:19;37.17;;;21.35;;
2023;SDS011;1016;48.770;9.154;2022-12-17T04:26:03;37.78;;;20.63;;
2023;SDS011;1016;48.770;9.154;2022-12-17T04:28:47;37.72;;;20.15;;
2023;SDS011;1016;48.770;9.154;2022-12-17T04:31:35;36.22;;;20.13;;
2023;SDS011;1016;48.770;9.154;2022-12-17T04:34:19;37.95;;;20.50;;
2023;SDS011;1016;48.770;9.154;2022-12-17T04:37:03;37.10;;;20.77;;
2023;SDS011;1016;48.770;9.154;2022-12-17T04:39:47;36.10;;;20.70;;
2023;SDS011;1016;48.770;9.154;2022-12-17T04:42:31;37.00;;;21.05;;
2023;SDS011;1016;48.770;9.154;2022-12-17T04:45:15;37.95;;;21.17;;
2023;SDS011;1016;48.770;9.154;2022-12-17T04:48:00;37.17;;;20.90;;
2023;SDS011;1016;48.770;9.154;2022-12-17T04:50:45;36.50;;;20.10;;
2023;SDS011;1016;48.770;9.154;2022-12-17T04:53:29;38.83;;;21.83;;
2023;SDS011;1016;48.770;9.154;2022-12-17T04:56:13;38.50;;;20.98;;
2023;SDS011;1016;48.770;9.154;2022-12-17T04:58:57;38.40;;;21.70;;
2023;SDS011;1016;48.770;9.154;2022-12-17T05:01:41;39.75;;;22.10;;
2023;SDS011;1016;48.770;9.154;2022-12-17T05:04:26;37.97;;;21.35;;
2023;SDS011;1016;48.770;9.154;2022-12-17T05:07:10;39.38;;;22.08;;
2023;SDS011;1016;48.770;9.154;2022-12-17T05:09:54;39.30;;;22.55;;
2023;SDS011;1016;48.770;9.154;2022-12-17T05:12:38;37.85;;;21.70;;
2023;SDS011;1016;48.770;9.154;2022-12-17T05:15:22;37.85;;;21.58;;
2023;SDS011;1016;48.770;9.154;2022-12-17T05:18:06;37.28;;;21.13;;
2023;SDS011;1016;48.770;9.154;2022-12-17T05:20:51;38.33;;;20.65;;
2023;SDS011;1016;48.770;9.154;2022-12-17T05:23:35;36.65;;;20.90;;
2023;SDS011;1016;48.770;9.154;2022-12-17T05:26:24;37.90;;;20.05;;
2023;SDS011;1016;48.770;9.154;2022-12-17T05:29:10;38.45;;;20.90;;
2023;SDS011;1016;48.770;9.154;2022-12-17T05:31:54;37.40;;;21.02;;
2023;SDS011;1016;48.770;9.154;2022-12-17T05:34:39;36.65;;;21.00;;
2023;SDS011;1016;48.770;9.154;2022-12-17T05:37:23;38.45;;;21.00;;
2023;SDS011;1016;48.770;9.154;2022-12-17T05:40:07;37.92;;;21.17;;
2023;SDS011;1016;48.770;9.154;2022-12-17T05:42:59;37.30;;;21.20;;
2023;SDS011;1016;48.770;9.154;2022-12-17T05:45:46;36.50;;;21.50;;
2023;SDS011;1016;48.770;9.154;2022-12-17T05:48:31;42.67;;;23.87;;
2023;SDS011;1016;48.770;9.154;2022-12-17T05:51:15;39.70;;;21.45;;
2023;SDS011;1016;48.770;9.154;2022-12-17T05:54:00;39.13;;;22.70;;
2023;SDS011;1016;48.770;9.154;2022-12-17T05:56:44;41.05;;;22.35;;
2023;SDS011;1016;48.770;9.154;2022-12-17T05:59:28;40.20;;;22.25;;
2023;SDS011;1016;48.770;9.154;2022-12-17T06:02:12;39.10;;;21.50;;
2023;SDS011;1016;48.770;9.154;2022-12-17T06:04:57;39.60;;;21.77;;
2023;SDS011;1016;48.770;9.154;2022-12-17T06:07:41;40.10;;;22.45;;
2023;SDS011;1016;48.770;9.154;2022-12-17T06:10:25;35.78;;;20.02;;
2023;SDS011;1016;48.770;9.154;2022-12-17T06:13:09;36.25;;;20.50;;
2023;SDS011;1016;48.770;9.154;2022-12-17T06:15:53;36.70;;;19.47;;
2023;SDS011;1016;48.770;9.154;2022-12-17T06:18:37;36.97;;;20.35;;
2023;SDS011;1016;48.770;9.154;2022-12-17T06:21:21;40.35;;;22.27;;
2023;SDS011;1016;48.770;9.154;2022-12-17T06:24:05;42.67;;;23.92;;
2023;SDS011;1016;48.770;9.154;2022-12-17T06:26:50;41.42;;;22.95;;
2023;SDS011;1016;48.770;9.154;2022-12-17T06:29:34;40.63;;;21.70;;
2023;SDS011;1016;48.770;9.154;2022-12-17T06:32:18;40.58;;;21.73;;
2023;SDS011;1016;48.770;9.154;2022-12-17T06:35:03;41.75;;;23.73;;
2023;SDS011;1016;48.770;9.154;2022-12-17T06:37:47;42.30;;;23.83;;
2023;SDS011;1016;48.770;9.154;2022-12-17T06:40:43;41.83;;;23.73;;
2023;SDS011;1016;48.770;9.154;2022-12-17T06:43:41;42.08;;;23.58;;
2023;SDS011;1016;48.770;9.154;2022-12-17T06:46:25;44.22;;;24.50;;
2023;SDS011;1016;48.770;9.154;2022-12-17T06:49:09;43.95;;;24.30;;
2023;SDS011;1016;48.770;9.154;2022-12-17T06:51:53;41.30;;;23.15;;
2023;SDS011;1016;48.770;9.154;2022-12-17T06:54:37;43.42;;;24.40;;
2023;SDS011;1016;48.770;9.154;2022-12-17T06:57:21;46.95;;;25.70;;
2023;SDS011;1016;48.770;9.154;2022-12-17T07:00:05;45.72;;;25.58;;
2023;SDS011;1016;48.770;9.154;2022-12-17T07:02:56;46.08;;;26.33;;
2023;SDS011;1016;48.770;9.154;2022-12-17T07:05:41;47.08;;;26.88;;
2023;SDS011;1016;48.770;9.154;2022-12-17T07:08:25;48.17;;;27.50;;
2023;SDS011;1016;48.770;9.154;2022-12-17T07:11:09;44.57;;;24.60;;
2023;SDS011;1016;48.770;9.154;2022-12-17T07:13:53;44.15;;;25.35;;
2023;SDS011;1016;48.770;9.154;2022-12-17T07:16:37;48.33;;;26.83;;
2023;SDS011;1016;48.770;9.154;2022-12-17T07:19:21;50.33;;;27.70;;
2023;SDS011;1016;48.770;9.154;2022-12-17T07:22:05;47.08;;;25.50;;
2023;SDS011;1016;48.770;9.154;2022-12-17T07:24:49;48.47;;;25.88;;
2023;SDS011;1016;48.770;9.154;2022-12-17T07:27:33;44.55;;;24.60;;
2023;SDS011;1016;48.770;9.154;2022-12-17T07:30:31;46.40;;;25.05;;
2023;SDS011;1016;48.770;9.154;2022-12-17T07:33:15;43.97;;;23.75;;
2023;SDS011;1016;48.770;9.154;2022-12-17T07:35:59;43.75;;;23.92;;
2023;SDS011;1016;48.770;9.154;2022-12-17T07:38:43;42.53;;;23.40;;
2023;SDS011;1016;48.770;9.154;2022-12-17T07:41:27;42.30;;;22.98;;
2023;SDS011;1016;48.770;9.154;2022-12-17T07:44:11;45.53;;;24.30;;
2023;SDS011;1016;48.770;9.154;2022-12-17T07:46:56;44.63;;;24.17;;
2023;SDS011;1016;48.770;9.154;2022-12-17T07:49:40;43.50;;;23.58;;
2023;SDS011;1016;48.770;9.154;2022-12-17T07:52:24;44.13;;;24.65;;
2023;SDS011;1016;48.770;9.154;2022-12-17T07:55:08;46.78;;;25.65;;
2023;SDS011;1016;48.770;9.154;2022-12-17T07:58:03;46.65;;;25.20;;
2023;SDS011;1016;48.770;9.154;2022-12-17T08:00:49;43.92;;;24.20;;
2023;SDS011;1016;48.770;9.154;2022-12-17T08:03:33;49.70;;;25.52;;
2023;SDS011;1016;48.770;9.154;2022-12-17T08:06:17;48.97;;;26.02;;
2023;SDS011;1016;48.770;9.154;2022-12-17T08:09:01;48.92;;;26.63;;
2023;SDS011;1016;48.770;9.154;2022-12-17T08:11:46;48.08;;;26.80;;
2023;SDS011;1016;48.770;9.154;2022-12-17T08:14:30;48.55;;;26.45;;
2023;SDS011;1016;48.770;9.154;2022-12-17T08:17:14;46.33;;;24.60;;
2023;SDS011;1016;48.770;9.154;2022-12-17T08:20:12;46.50;;;24.80;;
2023;SDS011;1016;48.770;9.154;2022-12-17T08:23:00;45.55;;;24.63;;
2023;SDS011;1016;48.770;9.154;2022-12-17T08:25:45;47.97;;;25.23;;
2023;SDS011;1016;48.770;9.154;2022-12-17T08:28:29;49.40;;;26.27;;
2023;SDS011;1016;48.770;9.154;2022-12-17T08:31:13;47.28;;;26.60;;
2023;SDS011;1016;48.770;9.154;2022-12-17T08:33:57;49.92;;;26.42;;
2023;SDS011;1016;48.770;9.154;2022-12-17T08:36:41;45.63;;;24.98;;
2023;SDS011;1016;48.770;9.154;2022-12-17T08:39:25;45.88;;;24.67;;
2023;SDS011;1016;48.770;9.154;2022-12-17T08:42:09;46.90;;;24.70;;
2023;SDS011;1016;48.770;9.154;2022-12-17T08:44:53;46.63;;;24.52;;
2023;SDS011;1016;48.770;9.154;2022-12-17T08:47:37;44.58;;;24.08;;
2023;SDS011;1016;48.770;9.154;2022-12-17T08:50:21;44.93;;;23.77;;
2023;SDS011;1016;48.770;9.154;2022-12-17T08:53:05;41.90;;;22.30;;
2023;SDS011;1016;48.770;9.154;2022-12-17T08:55:49;42.78;;;22.65;;
2023;SDS011;1016;48.770;9.154;2022-12-17T08:58:33;42.83;;;23.50;;
2023;SDS011;1016;48.770;9.154;2022-12-17T09:01:17;43.00;;;23.40;;
2023;SDS011;1016;48.770;9.154;2022-12-17T09:04:01;41.37;;;22.00;;
2023;SDS011;1016;48.770;9.154;2022-12-17T09:06:45;40.42;;;21.65;;
2023;SDS011;1016;48.770;9.154;2022-12-17T09:09:29;40.88;;;22.08;;
2023;SDS011;1016;48.770;9.154;2022-12-17T09:12:13;39.17;;;21.45;;
2023;SDS011;1016;48.770;9.154;2022-12-17T09:14:57;39.55;;;21.95;;
2023;SDS011;1016;48.770;9.154;2022-12-17T09:17:41;41.75;;;22.30;;
2023;SDS011;1016;48.770;9.154;2022-12-17T09:20:25;41.60;;;21.80;;
2023;SDS011;1016;48.770;9.154;2022-12-17T09:23:09;43.10;;;23.05;;
2023;SDS011;1016;48.770;9.154;2022-12-17T09:25:58;40.95;;;22.40;;
2023;SDS011;1016;48.770;9.154;2022-12-17T09:28:42;40.83;;;22.58;;
2023;SDS011;1016;48.770;9.154;2022-12-17T09:31:26;42.30;;;22.20;;
2023;SDS011;1016;48.770;9.154;2022-12-17T09:34:10;42.50;;;23.30;;
2023;SDS011;1016;48.770;9.154;2022-12-17T09:36:54;42.20;;;23.52;;
2023;SDS011;1016;48.770;9.154;2022-12-17T09:39:38;42.17;;;23.38;;
2023;SDS011;1016;48.770;9.154;2022-12-17T09:42:24;41.67;;;22.88;;
2023;SDS011;1016;48.770;9.154;2022-12-17T09:45:21;42.88;;;24.17;;
2023;SDS011;1016;48.770;9.154;2022-12-17T09:48:14;43.92;;;24.02;;
2023;SDS011;1016;48.770;9.154;2022-12-17T09:51:22;44.47;;;25.05;;
2023;SDS011;1016;48.770;9.154;2022-12-17T09:54:14;46.05;;;25.98;;
2023;SDS011;1016;48.770;9.154;2022-12-17T09:57:13;45.87;;;25.70;;
2023;SDS011;1016;48.770;9.154;2022-12-17T10:00:21;45.38;;;26.30;;
2023;SDS011;1016;48.770;9.154;2022-12-17T10:03:12;44.53;;;25.98;;
2023;SDS011;1016;48.770;9.154;2022-12-17T10:05:59;45.58;;;25.90;;
2023;SDS011;1016;48.770;9.154;2022-12-17T10:08:58;47.30;;;27.42;;
2023;SDS011;1016;48.770;9.154;2022-12-17T10:11:58;45.85;;;26.20;;
2023;SDS011;1016;48.770;9.154;2022-12-17T10:14:50;45.90;;;26.50;;
2023;SDS011;1016;48.770;9.154;2022-12-17T10:17:34;47.47;;;26.85;;
2023;SDS011;1016;48.770;9.154;2022-12-17T10:26:17;45.63;;;26.42;;
2023;SDS011;1016;48.770;9.154;2022-12-17T10:32:11;45.03;;;27.52;;
2023;SDS011;1016;48.770;9.154;2022-12-17T10:34:58;46.30;;;27.45;;
2023;SDS011;1016;48.770;9.154;2022-12-17T10:41:02;47.55;;;27.30;;
2023;SDS011;1016;48.770;9.154;2022-12-17T10:43:46;44.85;;;26.92;;
2023;SDS011;1016;48.770;9.154;2022-12-17T10:46:31;44.75;;;26.27;;
2023;SDS011;1016;48.770;9.154;2022-12-17T10:49:17;44.22;;;25.75;;
2023;SDS011;1016;48.770;9.154;2022-12-17T10:52:26;44.60;;;26.00;;
2023;SDS011;1016;48.770;9.154;2022-12-17T10:55:22;45.83;;;26.67;;
2023;SDS011;1016;48.770;9.154;2022-12-17T10:58:13;46.53;;;27.80;;
2023;SDS011;1016;48.770;9.154;2022-12-17T11:00:59;47.55;;;29.45;;
2023;SDS011;1016;48.770;9.154;2022-12-17T11:03:52;46.67;;;27.55;;
2023;SDS011;1016;48.770;9.154;2022-12-17T11:06:41;44.38;;;25.65;;
2023;SDS011;1016;48.770;9.154;2022-12-17T11:10:05;45.42;;;26.05;;
2023;SDS011;1016;48.770;9.154;2022-12-17T11:12:45;45.97;;;27.60;;
2023;SDS011;1016;48.770;9.154;2022-12-17T11:15:37;43.10;;;25.67;;
2023;SDS011;1016;48.770;9.154;2022-12-17T11:21:39;44.07;;;25.50;;
2023;SDS011;1016;48.770;9.154;2022-12-17T11:24:28;46.70;;;27.63;;
2023;SDS011;1016;48.770;9.154;2022-12-17T11:27:18;45.80;;;26.75;;
2023;SDS011;1016;48.770;9.154;2022-12-17T11:30:14;47.15;;;27.60;;
2023;SDS011;1016;48.770;9.154;2022-12-17T11:33:14;47.45;;;27.33;;
2023;SDS011;1016;48.770;9.154;2022-12-17T11:36:12;44.95;;;25.77;;
2023;SDS011;1016;48.770;9.154;2022-12-17T11:39:37;45.88;;;25.90;;
2023;SDS011;1016;48.770;9.154;2022-12-17T11:45:23;46.28;;;26.33;;
2023;SDS011;1016;48.770;9.154;2022-12-17T11:48:29;46.47;;;26.52;;
2023;SDS011;1016;48.770;9.154;2022-12-17T11:51:29;46.40;;;27.55;;
2023;SDS011;1016;48.770;9.154;2022-12-17T11:57:55;48.63;;;27.00;;
2023;SDS011;1016;48.770;9.154;2022-12-17T12:00:52;46.35;;;27.25;;
2023;SDS011;1016;48.770;9.154;2022-12-17T12:03:48;47.38;;;27.25;;
2023;SDS011;1016;48.770;9.154;2022-12-17T12:10:02;46.63;;;28.00;;
2023;SDS011;1016;48.770;9.154;2022-12-17T12:13:19;47.33;;;27.60;;
2023;SDS011;1016;48.770;9.154;2022-12-17T12:16:08;47.13;;;26.85;;
2023;SDS011;1016;48.770;9.154;2022-12-17T12:24:59;45.55;;;27.30;;
2023;SDS011;1016;48.770;9.154;2022-12-17T12:28:07;45.35;;;26.40;;
2023;SDS011;1016;48.770;9.154;2022-12-17T12:34:14;47.15;;;27.65;;
2023;SDS011;1016;48.770;9.154;2022-12-17T12:37:02;45.33;;;26.63;;
2023;SDS011;1016;48.770;9.154;2022-12-17T12:39:58;42.75;;;26.23;;
2023;SDS011;1016;48.770;9.154;2022-12-17T12:42:50;45.47;;;27.00;;
2023;SDS011;1016;48.770;9.154;2022-12-17T12:51:29;45.33;;;26.50;;
2023;SDS011;1016;48.770;9.154;2022-12-17T12:54:25;45.90;;;27.45;;
2023;SDS011;1016;48.770;9.154;2022-12-17T12:57:36;46.42;;;27.85;;
2023;SDS011;1016;48.770;9.154;2022-12-17T13:03:35;48.42;;;28.58;;
2023;SDS011;1016;48.770;9.154;2022-12-17T13:14:29;50.80;;;29.50;;
2023;SDS011;1016;48.770;9.154;2022-12-17T13:17:07;48.28;;;29.35;;
2023;SDS011;1016;48.770;9.154;2022-12-17T13:24:48;47.97;;;28.65;;
2023;SDS011;1016;48.770;9.154;2022-12-17T13:32:45;51.80;;;30.85;;
2023;SDS011;1016;48.770;9.154;2022-12-17T13:35:38;48.35;;;29.58;;
2023;SDS011;1016;48.770;9.154;2022-12-17T13:41:37;51.17;;;31.00;;
2023;SDS011;1016;48.770;9.154;2022-12-17T13:44:15;49.13;;;30.30;;
2023;SDS011;1016;48.770;9.154;2022-12-17T13:46:46;52.28;;;31.17;;
2023;SDS011;1016;48.770;9.154;2022-12-17T13:49:18;52.72;;;31.33;;
2023;SDS011;1016;48.770;9.154;2022-12-17T13:51:46;52.88;;;31.83;;
2023;SDS011;1016;48.770;9.154;2022-12-17T13:54:17;51.23;;;31.80;;
2023;SDS011;1016;48.770;9.154;2022-12-17T13:56:43;50.60;;;31.30;;
2023;SDS011;1016;48.770;9.154;2022-12-17T14:02:01;53.60;;;32.42;;
2023;SDS011;1016;48.770;9.154;2022-12-17T14:04:30;51.88;;;32.60;;
2023;SDS011;1016;48.770;9.154;2022-12-17T14:07:01;52.70;;;32.50;;
2023;SDS011;1016;48.770;9.154;2022-12-17T14:09:37;52.85;;;32.67;;
2023;SDS011;1016;48.770;9.154;2022-12-17T14:12:04;53.15;;;32.40;;
2023;SDS011;1016;48.770;9.154;2022-12-17T14:14:47;52.33;;;32.33;;
2023;SDS011;1016;48.770;9.154;2022-12-17T14:17:20;53.28;;;31.98;;
2023;SDS011;1016;48.770;9.154;2022-12-17T14:20:12;53.15;;;32.00;;
2023;SDS011;1016;48.770;9.154;2022-12-17T14:22:42;52.55;;;31.50;;
2023;SDS011;1016;48.770;9.154;2022-12-17T14:25:15;54.88;;;33.67;;
2023;SDS011;1016;48.770;9.154;2022-12-17T14:27:59;55.13;;;34.67;;
2023;SDS011;1016;48.770;9.154;2022-12-17T14:30:34;53.90;;;33.65;;
2023;SDS011;1016;48.770;9.154;2022-12-17T14:33:02;54.92;;;33.05;;
2023;SDS011;1016;48.770;9.154;2022-12-17T14:35:29;58.28;;;36.60;;
2023;SDS011;1016;48.770;9.154;2022-12-17T14:37:58;57.05;;;33.63;;
2023;SDS011;1016;48.770;9.154;2022-12-17T14:40:24;54.70;;;32.80;;
2023;SDS011;1016;48.770;9.154;2022-12-17T14:42:51;57.90;;;34.50;;
2023;SDS011;1016;48.770;9.154;2022-12-17T14:45:22;54.70;;;33.20;;
2023;SDS011;1016;48.770;9.154;2022-12-17T14:47:59;53.15;;;33.05;;
2023;SDS011;1016;48.770;9.154;2022-12-17T14:50:32;54.50;;;32.50;;
2023;SDS011;1016;48.770;9.154;2022-12-17T14:53:00;55.42;;;33.72;;
2023;SDS011;1016;48.770;9.154;2022-12-17T14:55:31;54.05;;;33.30;;
2023;SDS011;1016;48.770;9.154;2022-12-17T14:58:19;56.90;;;35.60;;
2023;SDS011;1016;48.770;9.154;2022-12-17T15:00:47;55.10;;;34.10;;
2023;SDS011;1016;48.770;9.154;2022-12-17T15:03:21;55.22;;;34.00;;
2023;SDS011;1016;48.770;9.154;2022-12-17T15:05:51;58.55;;;35.95;;
2023;SDS011;1016;48.770;9.154;2022-12-17T15:08:29;59.73;;;36.60;;
2023;SDS011;1016;48.770;9.154;2022-12-17T15:10:57;55.53;;;35.50;;
2023;SDS011;1016;48.770;9.154;2022-12-17T15:13:23;58.33;;;36.30;;
2023;SDS011;1016;48.770;9.154;2022-12-17T15:15:49;59.37;;;36.17;;
2023;SDS011;1016;48.770;9.154;2022-12-17T15:18:14;58.67;;;36.87;;
2023;SDS011;1016;48.770;9.154;2022-12-17T15:20:40;57.50;;;35.15;;
2023;SDS011;1016;48.770;9.154;2022-12-17T15:23:08;59.97;;;36.88;;
2023;SDS011;1016;48.770;9.154;2022-12-17T15:25:41;59.70;;;37.10;;
2023;SDS011;1016;48.770;9.154;2022-12-17T15:28:08;58.23;;;36.20;;
2023;SDS011;1016;48.770;9.154;2022-12-17T15:30:34;57.60;;;33.88;;
2023;SDS011;1016;48.770;9.154;2022-12-17T15:33:00;57.22;;;35.70;;
2023;SDS011;1016;48.770;9.154;2022-12-17T15:35:26;56.67;;;34.78;;
2023;SDS011;1016;48.770;9.154;2022-12-17T15:37:51;54.23;;;33.17;;
2023;SDS011;1016;48.770;9.154;2022-12-17T15:40:17;54.20;;;33.50;;
2023;SDS011;1016;48.770;9.154;2022-12-17T15:42:42;58.45;;;34.63;;
2023;SDS011;1016;48.770;9.154;2022-12-17T15:45:26;57.80;;;36.33;;
2023;SDS011;1016;48.770;9.154;2022-12-17T15:47:52;60.08;;;36.97;;
2023;SDS011;1016;48.770;9.154;2022-12-17T15:50:17;57.55;;;35.70;;
2023;SDS011;1016;48.770;9.154;2022-12-17T15:52:43;60.63;;;36.95;;
2023;SDS011;1016;48.770;9.154;2022-12-17T15:55:08;60.73;;;37.00;;
2023;SDS011;1016;48.770;9.154;2022-12-17T15:57:38;61.50;;;37.40;;
2023;SDS011;1016;48.770;9.154;2022-12-17T16:00:04;61.95;;;36.38;;
2023;SDS011;1016;48.770;9.154;2022-12-17T16:02:30;63.28;;;37.92;;
2023;SDS011;1016;48.770;9.154;2022-12-17T16:04:56;64.53;;;38.60;;
2023;SDS011;1016;48.770;9.154;2022-12-17T16:07:21;64.60;;;38.50;;
2023;SDS011;1016;48.770;9.154;2022-12-17T16:09:47;63.58;;;37.97;;
2023;SDS011;1016;48.770;9.154;2022-12-17T16:12:12;64.00;;;38.17;;
2023;SDS011;1016;48.770;9.154;2022-12-17T16:14:38;65.03;;;38.57;;
2023;SDS011;1016;48.770;9.154;2022-12-17T16:17:03;65.03;;;37.90;;
2023;SDS011;1016;48.770;9.154;2022-12-17T16:19:29;63.63;;;38.58;;
2023;SDS011;1016;48.770;9.154;2022-12-17T16:21:55;62.17;;;36.23;;
2023;SDS011;1016;48.770;9.154;2022-12-17T16:24:20;61.67;;;37.27;;
2023;SDS011;1016;48.770;9.154;2022-12-17T16:26:45;59.95;;;37.10;;
2023;SDS011;1016;48.770;9.154;2022-12-17T16:29:11;58.53;;;35.50;;
2023;SDS011;1016;48.770;9.154;2022-12-17T16:31:36;59.77;;;35.33;;
2023;SDS011;1016;48.770;9.154;2022-12-17T16:34:06;56.55;;;33.90;;
2023;SDS011;1016;48.770;9.154;2022-12-17T16:36:35;56.50;;;34.83;;
2023;SDS011;1016;48.770;9.154;2022-12-17T16:39:00;57.13;;;34.20;;
2023;SDS011;1016;48.770;9.154;2022-12-17T16:41:27;55.25;;;33.88;;
2023;SDS011;1016;48.770;9.154;2022-12-17T16:43:53;56.97;;;34.90;;
2023;SDS011;1016;48.770;9.154;2022-12-17T16:46:22;57.15;;;34.70;;
2023;SDS011;1016;48.770;9.154;2022-12-17T16:48:50;56.55;;;34.30;;
2023;SDS011;1016;48.770;9.154;2022-12-17T16:51:17;56.67;;;34.47;;
2023;SDS011;1016;48.770;9.154;2022-12-17T16:53:44;56.92;;;35.75;;
2023;SDS011;1016;48.770;9.154;2022-12-17T16:56:17;57.17;;;34.78;;
2023;SDS011;1016;48.770;9.154;2022-12-17T16:58:44;60.03;;;36.53;;
2023;SDS011;1016;48.770;9.154;2022-12-17T17:01:10;58.33;;;35.75;;
2023;SDS011;1016;48.770;9.154;2022-12-17T17:03:40;59.28;;;36.08;;
2023;SDS011;1016;48.770;9.154;2022-12-17T17:06:06;58.70;;;34.92;;
2023;SDS011;1016;48.770;9.154;2022-12-17T17:08:34;59.60;;;37.05;;
2023;SDS011;1016;48.770;9.154;2022-12-17T17:11:14;55.40;;;34.70;;
2023;SDS011;1016;48.770;9.154;2022-12-17T17:13:43;56.47;;;33.92;;
2023;SDS011;1016;48.770;9.154;2022-12-17T17:16:09;57.97;;;35.70;;
2023;SDS011;1016;48.770;9.154;2022-12-17T17:18:35;54.90;;;34.58;;
2023;SDS011;1016;48.770;9.154;2022-12-17T17:24:00;59.65;;;36.65;;
2023;SDS011;1016;48.770;9.154;2022-12-17T17:26:31;58.72;;;36.20;;
2023;SDS011;1016;48.770;9.154;2022-12-17T17:28:58;62.43;;;37.50;;
2023;SDS011;1016;48.770;9.154;2022-12-17T17:31:24;61.28;;;36.80;;
2023;SDS011;1016;48.770;9.154;2022-12-17T17:33:50;61.45;;;37.90;;
2023;SDS011;1016;48.770;9.154;2022-12-17T17:36:23;61.90;;;38.13;;